sensor_id;sensor_type;location;lat;lon;timestamp;pressure;altitude;pressure_sealevel;temperature;humidity
43217;BME280;60511;42.686;23.300;2023-02-21T00:02:01;95085.56;;;22.50;29.46
43217;BME280;60511;42.686;23.300;2023-02-21T00:04:20;95100.88;;;22.58;29.33
43217;BME280;60511;42.686;23.300;2023-02-21T00:06:43;95100.06;;;22.57;29.58
43217;BME280;60511;42.686;23.300;2023-02-21T00:09:02;95107.81;;;22.59;29.64
43217;BME280;60511;42.686;23.300;2023-02-21T00:11:21;95069.25;;;22.46;29.36
43217;BME280;60511;42.686;23.300;2023-02-21T00:13:39;95086.34;;;22.50;29.26
43217;BME280;60511;42.686;23.300;2023-02-21T00:15:58;95082.63;;;22.55;29.44
43217;BME280;60511;42.686;23.300;2023-02-21T00:18:18;95092.41;;;22.59;29.49
43217;BME280;60511;42.686;23.300;2023-02-21T00:20:37;94996.22;;;21.93;29.34
43217;BME280;60511;42.686;23.300;2023-02-21T00:22:56;95068.34;;;22.42;29.00
43217;BME280;60511;42.686;23.300;2023-02-21T00:25:15;94982.16;;;21.87;29.49
43217;BME280;60511;42.686;23.300;2023-02-21T00:27:34;95060.59;;;22.40;28.84
43217;BME280;60511;42.686;23.300;2023-02-21T00:29:53;95098.94;;;22.58;29.53
43217;BME280;60511;42.686;23.300;2023-02-21T00:32:12;95072.97;;;22.54;29.39
43217;BME280;60511;42.686;23.300;2023-02-21T00:34:31;95083.88;;;22.57;29.36
43217;BME280;60511;42.686;23.300;2023-02-21T00:36:51;95070.72;;;22.56;29.23
43217;BME280;60511;42.686;23.300;2023-02-21T00:39:10;95070.28;;;22.54;29.13
43217;BME280;60511;42.686;23.300;2023-02-21T00:41:29;95079.59;;;22.56;29.33
43217;BME280;60511;42.686;23.300;2023-02-21T00:43:48;95073.44;;;22.56;28.99
43217;BME280;60511;42.686;23.300;2023-02-21T00:46:07;95068.69;;;22.53;28.92
43217;BME280;60511;42.686;23.300;2023-02-21T00:48:26;95046.00;;;22.41;29.21
43217;BME280;60511;42.686;23.300;2023-02-21T00:50:45;95069.59;;;22.57;29.17
43217;BME280;60511;42.686;23.300;2023-02-21T00:53:03;95059.59;;;22.57;29.16
43217;BME280;60511;42.686;23.300;2023-02-21T00:55:22;94976.16;;;22.03;29.34
43217;BME280;60511;42.686;23.300;2023-02-21T00:57:41;95047.91;;;22.53;29.11
43217;BME280;60511;42.686;23.300;2023-02-21T01:00:01;95072.63;;;22.55;28.84
43217;BME280;60511;42.686;23.300;2023-02-21T01:02:20;94929.38;;;21.74;28.94
43217;BME280;60511;42.686;23.300;2023-02-21T01:04:39;95036.09;;;22.45;29.10
43217;BME280;60511;42.686;23.300;2023-02-21T01:06:58;95019.81;;;22.42;29.18
43217;BME280;60511;42.686;23.300;2023-02-21T01:09:17;95035.41;;;22.49;28.83
43217;BME280;60511;42.686;23.300;2023-02-21T01:11:36;95040.50;;;22.50;28.86
43217;BME280;60511;42.686;23.300;2023-02-21T01:13:55;95023.72;;;22.44;28.95
43217;BME280;60511;42.686;23.300;2023-02-21T01:16:14;95023.16;;;22.39;29.17
43217;BME280;60511;42.686;23.300;2023-02-21T01:18:33;95029.25;;;22.48;28.95
43217;BME280;60511;42.686;23.300;2023-02-21T01:20:52;95020.81;;;22.50;30.49
43217;BME280;60511;42.686;23.300;2023-02-21T01:23:11;95021.72;;;22.41;28.90
43217;BME280;60511;42.686;23.300;2023-02-21T01:25:29;94998.78;;;22.35;29.46
43217;BME280;60511;42.686;23.300;2023-02-21T01:27:48;94998.88;;;22.39;29.12
43217;BME280;60511;42.686;23.300;2023-02-21T01:30:08;95019.22;;;22.49;29.97
43217;BME280;60511;42.686;23.300;2023-02-21T01:32:27;94994.63;;;22.38;30.07
43217;BME280;60511;42.686;23.300;2023-02-21T01:34:46;94955.25;;;22.12;30.17
43217;BME280;60511;42.686;23.300;2023-02-21T01:37:05;94946.50;;;22.03;30.03
43217;BME280;60511;42.686;23.300;2023-02-21T01:39:24;94999.25;;;22.50;32.44
43217;BME280;60511;42.686;23.300;2023-02-21T01:41:43;95013.97;;;22.52;31.67
43217;BME280;60511;42.686;23.300;2023-02-21T01:44:26;94891.09;;;21.69;30.16
43217;BME280;60511;42.686;23.300;2023-02-21T01:46:45;95020.00;;;22.49;31.21
43217;BME280;60511;42.686;23.300;2023-02-21T01:49:15;94976.53;;;22.26;31.02
43217;BME280;60511;42.686;23.300;2023-02-21T01:51:39;95006.78;;;22.44;35.20
43217;BME280;60511;42.686;23.300;2023-02-21T01:53:58;94994.19;;;22.48;33.47
43217;BME280;60511;42.686;23.300;2023-02-21T01:56:18;94980.00;;;22.26;35.99
43217;BME280;60511;42.686;23.300;2023-02-21T01:58:37;94955.81;;;22.05;36.12
43217;BME280;60511;42.686;23.300;2023-02-21T02:00:56;94992.84;;;21.96;38.09
43217;BME280;60511;42.686;23.300;2023-02-21T02:03:18;94979.81;;;21.98;37.31
43217;BME280;60511;42.686;23.300;2023-02-21T02:05:38;94991.06;;;22.13;39.42
43217;BME280;60511;42.686;23.300;2023-02-21T02:07:57;94941.09;;;21.91;37.10
43217;BME280;60511;42.686;23.300;2023-02-21T02:10:17;94976.47;;;22.01;39.50
43217;BME280;60511;42.686;23.300;2023-02-21T02:19:41;94968.97;;;22.07;39.57
43217;BME280;60511;42.686;23.300;2023-02-21T02:24:47;94970.53;;;22.08;39.85
43217;BME280;60511;42.686;23.300;2023-02-21T02:36:51;94926.94;;;22.06;36.01
43217;BME280;60511;42.686;23.300;2023-02-21T02:43:19;94934.81;;;22.11;36.70
43217;BME280;60511;42.686;23.300;2023-02-21T02:45:29;94937.06;;;22.09;35.30
43217;BME280;60511;42.686;23.300;2023-02-21T02:47:37;94936.69;;;21.98;37.42
43217;BME280;60511;42.686;23.300;2023-02-21T02:49:40;94934.88;;;21.90;37.63
43217;BME280;60511;42.686;23.300;2023-02-21T02:51:42;94960.88;;;22.07;37.04
43217;BME280;60511;42.686;23.300;2023-02-21T02:53:43;94933.47;;;22.05;35.88
43217;BME280;60511;42.686;23.300;2023-02-21T02:55:45;94958.41;;;22.14;36.58
43217;BME280;60511;42.686;23.300;2023-02-21T02:57:47;94932.22;;;22.02;36.60
43217;BME280;60511;42.686;23.300;2023-02-21T02:59:48;94958.41;;;22.14;34.42
43217;BME280;60511;42.686;23.300;2023-02-21T03:10:59;94949.06;;;21.99;37.79
43217;BME280;60511;42.686;23.300;2023-02-21T03:15:12;94955.38;;;21.37;41.88
43217;BME280;60511;42.686;23.300;2023-02-21T03:17:19;94952.44;;;21.30;42.92
43217;BME280;60511;42.686;23.300;2023-02-21T03:19:28;94956.66;;;21.39;40.47
43217;BME280;60511;42.686;23.300;2023-02-21T03:21:35;94954.94;;;21.14;42.98
43217;BME280;60511;42.686;23.300;2023-02-21T03:23:38;94945.28;;;21.34;40.48
43217;BME280;60511;42.686;23.300;2023-02-21T03:25:40;94948.41;;;21.57;40.84
43217;BME280;60511;42.686;23.300;2023-02-21T03:27:42;94915.97;;;21.53;39.99
43217;BME280;60511;42.686;23.300;2023-02-21T03:29:43;94896.88;;;21.46;39.40
43217;BME280;60511;42.686;23.300;2023-02-21T03:31:48;94949.69;;;21.84;40.63
43217;BME280;60511;42.686;23.300;2023-02-21T03:33:50;94928.56;;;21.74;38.62
43217;BME280;60511;42.686;23.300;2023-02-21T03:35:51;94894.88;;;21.55;38.94
43217;BME280;60511;42.686;23.300;2023-02-21T03:37:52;94910.41;;;21.71;38.41
43217;BME280;60511;42.686;23.300;2023-02-21T03:39:52;94920.50;;;21.86;36.96
43217;BME280;60511;42.686;23.300;2023-02-21T03:41:53;94935.34;;;21.92;38.39
43217;BME280;60511;42.686;23.300;2023-02-21T03:43:53;94923.31;;;21.77;39.17
43217;BME280;60511;42.686;23.300;2023-02-21T03:45:54;94949.84;;;22.00;37.45
43217;BME280;60511;42.686;23.300;2023-02-21T03:47:54;94930.53;;;21.98;36.15
43217;BME280;60511;42.686;23.300;2023-02-21T03:49:54;94892.13;;;21.76;37.40
43217;BME280;60511;42.686;23.300;2023-02-21T03:51:55;94926.72;;;21.99;36.89
43217;BME280;60511;42.686;23.300;2023-02-21T03:53:55;94925.69;;;21.91;36.09
43217;BME280;60511;42.686;23.300;2023-02-21T03:55:55;94923.91;;;21.95;35.50
43217;BME280;60511;42.686;23.300;2023-02-21T03:57:56;94957.28;;;22.15;36.85
43217;BME280;60511;42.686;23.300;2023-02-21T03:59:56;94968.16;;;22.19;36.22
43217;BME280;60511;42.686;23.300;2023-02-21T04:01:57;94857.53;;;21.54;35.77
43217;BME280;60511;42.686;23.300;2023-02-21T04:03:57;94947.16;;;22.12;34.61
43217;BME280;60511;42.686;23.300;2023-02-21T04:05:58;94957.38;;;22.19;35.89
43217;BME280;60511;42.686;23.300;2023-02-21T04:07:58;94932.91;;;22.12;36.17
43217;BME280;60511;42.686;23.300;2023-02-21T04:09:58;94958.19;;;22.07;36.14
43217;BME280;60511;42.686;23.300;2023-02-21T04:11:59;94950.88;;;22.20;33.55
43217;BME280;60511;42.686;23.300;2023-02-21T04:13:59;94951.53;;;22.04;36.01
43217;BME280;60511;42.686;23.300;2023-02-21T04:15:59;94852.47;;;21.52;36.54
43217;BME280;60511;42.686;23.300;2023-02-21T04:18:00;94952.34;;;22.17;34.70
43217;BME280;60511;42.686;23.300;2023-02-21T04:20:00;94971.22;;;22.17;36.43
43217;BME280;60511;42.686;23.300;2023-02-21T04:22:01;94921.09;;;21.92;35.60
43217;BME280;60511;42.686;23.300;2023-02-21T04:24:01;94986.13;;;22.15;36.01
43217;BME280;60511;42.686;23.300;2023-02-21T04:26:02;94941.41;;;21.89;35.28
43217;BME280;60511;42.686;23.300;2023-02-21T04:28:02;94980.75;;;22.15;35.02
43217;BME280;60511;42.686;23.300;2023-02-21T04:30:03;94978.50;;;22.17;36.24
43217;BME280;60511;42.686;23.300;2023-02-21T04:32:03;94974.69;;;22.05;35.74
43217;BME280;60511;42.686;23.300;2023-02-21T04:34:04;94964.53;;;21.90;35.66
43217;BME280;60511;42.686;23.300;2023-02-21T04:36:04;94997.44;;;21.96;37.48
43217;BME280;60511;42.686;23.300;2023-02-21T04:38:05;94974.09;;;21.87;37.89
43217;BME280;60511;42.686;23.300;2023-02-21T04:40:05;94973.41;;;21.78;39.31
43217;BME280;60511;42.686;23.300;2023-02-21T04:42:07;94998.88;;;21.81;39.25
43217;BME280;60511;42.686;23.300;2023-02-21T04:44:08;94960.66;;;21.54;39.80
43217;BME280;60511;42.686;23.300;2023-02-21T04:46:10;94982.38;;;21.70;40.78
43217;BME280;60511;42.686;23.300;2023-02-21T04:48:10;94957.69;;;21.80;39.42
43217;BME280;60511;42.686;23.300;2023-02-21T04:50:11;94989.19;;;21.67;42.16
43217;BME280;60511;42.686;23.300;2023-02-21T04:52:11;94992.88;;;21.63;39.59
43217;BME280;60511;42.686;23.300;2023-02-21T04:54:12;94976.13;;;21.57;40.68
43217;BME280;60511;42.686;23.300;2023-02-21T04:56:12;94939.66;;;21.48;39.23
43217;BME280;60511;42.686;23.300;2023-02-21T04:58:13;94976.38;;;21.64;40.64
43217;BME280;60511;42.686;23.300;2023-02-21T05:00:14;94963.78;;;21.56;37.89
43217;BME280;60511;42.686;23.300;2023-02-21T05:02:15;94972.03;;;21.72;38.84
43217;BME280;60511;42.686;23.300;2023-02-21T05:04:15;94938.34;;;21.66;40.04
43217;BME280;60511;42.686;23.300;2023-02-21T05:06:24;94952.59;;;21.66;39.32
43217;BME280;60511;42.686;23.300;2023-02-21T05:08:25;94927.75;;;21.49;39.14
43217;BME280;60511;42.686;23.300;2023-02-21T05:10:25;94917.00;;;21.61;36.98
43217;BME280;60511;42.686;23.300;2023-02-21T05:12:25;94928.06;;;21.80;36.84
43217;BME280;60511;42.686;23.300;2023-02-21T05:14:26;94947.03;;;21.96;36.48
43217;BME280;60511;42.686;23.300;2023-02-21T05:16:26;94881.97;;;21.61;34.08
43217;BME280;60511;42.686;23.300;2023-02-21T05:18:26;94892.56;;;21.66;35.16
43217;BME280;60511;42.686;23.300;2023-02-21T05:20:27;94958.06;;;22.03;36.43
43217;BME280;60511;42.686;23.300;2023-02-21T05:22:28;94901.09;;;21.80;36.66
43217;BME280;60511;42.686;23.300;2023-02-21T05:24:29;94941.56;;;22.05;37.56
43217;BME280;60511;42.686;23.300;2023-02-21T05:26:34;94943.88;;;22.06;36.58
43217;BME280;60511;42.686;23.300;2023-02-21T05:28:36;94937.72;;;22.06;37.15
43217;BME280;60511;42.686;23.300;2023-02-21T05:30:37;94909.66;;;21.95;35.20
43217;BME280;60511;42.686;23.300;2023-02-21T05:32:37;94914.47;;;21.89;35.98
43217;BME280;60511;42.686;23.300;2023-02-21T05:34:38;94907.03;;;21.86;37.23
43217;BME280;60511;42.686;23.300;2023-02-21T05:36:40;94945.81;;;22.06;35.92
43217;BME280;60511;42.686;23.300;2023-02-21T05:38:52;94875.50;;;21.62;37.17
43217;BME280;60511;42.686;23.300;2023-02-21T05:40:53;94944.47;;;22.00;36.87
43217;BME280;60511;42.686;23.300;2023-02-21T05:42:53;94931.88;;;22.04;36.33
43217;BME280;60511;42.686;23.300;2023-02-21T05:44:54;94945.34;;;21.92;35.77
43217;BME280;60511;42.686;23.300;2023-02-21T05:46:54;94939.81;;;21.88;37.58
43217;BME280;60511;42.686;23.300;2023-02-21T05:48:57;94921.06;;;21.79;37.00
43217;BME280;60511;42.686;23.300;2023-02-21T05:50:58;94933.22;;;21.85;34.66
43217;BME280;60511;42.686;23.300;2023-02-21T05:52:59;94943.19;;;21.73;38.62
43217;BME280;60511;42.686;23.300;2023-02-21T05:54:59;94961.47;;;21.67;38.67
43217;BME280;60511;42.686;23.300;2023-02-21T05:57:00;94983.50;;;21.81;40.03
43217;BME280;60511;42.686;23.300;2023-02-21T05:59:00;94967.78;;;21.83;38.65
43217;BME280;60511;42.686;23.300;2023-02-21T06:01:01;94987.44;;;21.84;39.80
43217;BME280;60511;42.686;23.300;2023-02-21T06:03:02;94992.50;;;21.85;40.32
43217;BME280;60511;42.686;23.300;2023-02-21T06:05:03;94880.81;;;21.16;39.69
43217;BME280;60511;42.686;23.300;2023-02-21T06:07:03;94984.72;;;21.84;39.91
43217;BME280;60511;42.686;23.300;2023-02-21T06:09:04;94993.66;;;21.97;40.97
43217;BME280;60511;42.686;23.300;2023-02-21T06:11:05;94988.72;;;21.99;39.28
43217;BME280;60511;42.686;23.300;2023-02-21T06:13:06;94977.34;;;21.93;39.13
43217;BME280;60511;42.686;23.300;2023-02-21T06:15:06;94985.47;;;22.05;39.82
43217;BME280;60511;42.686;23.300;2023-02-21T06:17:07;94943.19;;;21.73;40.39
43217;BME280;60511;42.686;23.300;2023-02-21T06:19:09;94867.66;;;21.36;38.23
43217;BME280;60511;42.686;23.300;2023-02-21T06:21:10;94970.72;;;21.91;38.37
43217;BME280;60511;42.686;23.300;2023-02-21T06:23:10;94997.94;;;22.10;38.88
43217;BME280;60511;42.686;23.300;2023-02-21T06:25:10;94979.75;;;22.07;39.85
43217;BME280;60511;42.686;23.300;2023-02-21T06:27:11;94999.72;;;22.06;39.73
43217;BME280;60511;42.686;23.300;2023-02-21T06:29:11;94944.25;;;21.93;38.26
43217;BME280;60511;42.686;23.300;2023-02-21T06:31:12;94998.19;;;22.17;39.36
43217;BME280;60511;42.686;23.300;2023-02-21T06:33:13;94992.56;;;22.22;39.61
43217;BME280;60511;42.686;23.300;2023-02-21T06:35:13;94971.66;;;22.19;38.26
43217;BME280;60511;42.686;23.300;2023-02-21T06:37:13;94978.09;;;22.27;36.29
43217;BME280;60511;42.686;23.300;2023-02-21T06:39:14;94983.28;;;22.32;33.06
43217;BME280;60511;42.686;23.300;2023-02-21T06:41:16;94947.16;;;22.12;35.53
43217;BME280;60511;42.686;23.300;2023-02-21T06:43:17;94987.00;;;22.40;34.13
43217;BME280;60511;42.686;23.300;2023-02-21T06:45:17;94980.00;;;22.26;34.76
43217;BME280;60511;42.686;23.300;2023-02-21T06:47:18;94984.63;;;22.38;34.38
43217;BME280;60511;42.686;23.300;2023-02-21T06:49:18;94984.75;;;22.42;34.25
43217;BME280;60511;42.686;23.300;2023-02-21T06:51:19;94970.56;;;22.33;33.70
43217;BME280;60511;42.686;23.300;2023-02-21T06:53:19;95000.81;;;22.51;34.27
43217;BME280;60511;42.686;23.300;2023-02-21T06:55:20;94957.91;;;22.33;34.56
43217;BME280;60511;42.686;23.300;2023-02-21T06:57:21;94999.69;;;22.52;33.77
43217;BME280;60511;42.686;23.300;2023-02-21T06:59:22;94984.41;;;22.43;33.92
43217;BME280;60511;42.686;23.300;2023-02-21T07:01:25;94976.09;;;22.49;33.69
43217;BME280;60511;42.686;23.300;2023-02-21T07:03:27;94958.78;;;22.37;33.49
43217;BME280;60511;42.686;23.300;2023-02-21T07:05:27;94961.50;;;22.37;33.62
43217;BME280;60511;42.686;23.300;2023-02-21T07:07:33;94989.34;;;22.54;33.65
43217;BME280;60511;42.686;23.300;2023-02-21T07:09:33;94945.41;;;22.29;33.12
43217;BME280;60511;42.686;23.300;2023-02-21T07:11:34;94987.09;;;22.56;32.88
43217;BME280;60511;42.686;23.300;2023-02-21T07:13:35;94975.50;;;22.55;33.06
43217;BME280;60511;42.686;23.300;2023-02-21T07:15:35;95002.03;;;22.65;33.43
43217;BME280;60511;42.686;23.300;2023-02-21T07:17:36;94999.34;;;22.65;32.96
43217;BME280;60511;42.686;23.300;2023-02-21T07:19:36;94998.88;;;22.63;33.63
43217;BME280;60511;42.686;23.300;2023-02-21T07:21:37;94875.84;;;21.85;33.37
43217;BME280;60511;42.686;23.300;2023-02-21T07:23:37;94983.28;;;22.57;33.26
43217;BME280;60511;42.686;23.300;2023-02-21T07:25:39;94957.44;;;22.43;32.98
43217;BME280;60511;42.686;23.300;2023-02-21T07:27:39;94972.94;;;22.59;32.43
43217;BME280;60511;42.686;23.300;2023-02-21T07:29:39;94956.41;;;22.48;32.66
43217;BME280;60511;42.686;23.300;2023-02-21T07:31:40;94983.94;;;22.66;32.84
43217;BME280;60511;42.686;23.300;2023-02-21T07:33:40;94962.81;;;22.56;32.59
43217;BME280;60511;42.686;23.300;2023-02-21T07:35:40;94936.31;;;22.45;32.97
43217;BME280;60511;42.686;23.300;2023-02-21T07:37:41;94959.44;;;22.59;32.31
43217;BME280;60511;42.686;23.300;2023-02-21T07:39:41;94969.56;;;22.62;32.81
43217;BME280;60511;42.686;23.300;2023-02-21T07:41:41;94951.34;;;22.59;32.67
43217;BME280;60511;42.686;23.300;2023-02-21T07:43:42;94964.38;;;22.69;32.55
43217;BME280;60511;42.686;23.300;2023-02-21T07:45:42;94959.66;;;22.66;32.57
43217;BME280;60511;42.686;23.300;2023-02-21T07:47:45;94951.00;;;22.60;32.53
43217;BME280;60511;42.686;23.300;2023-02-21T07:49:46;94927.78;;;22.43;32.45
43217;BME280;60511;42.686;23.300;2023-02-21T07:51:46;94959.09;;;22.73;32.09
43217;BME280;60511;42.686;23.300;2023-02-21T07:53:46;94964.25;;;22.78;31.78
43217;BME280;60511;42.686;23.300;2023-02-21T07:55:47;94934.03;;;22.60;31.86
43217;BME280;60511;42.686;23.300;2023-02-21T07:57:47;94957.16;;;22.73;31.79
43217;BME280;60511;42.686;23.300;2023-02-21T07:59:48;94915.19;;;22.48;32.19
43217;BME280;60511;42.686;23.300;2023-02-21T08:01:48;94941.69;;;22.58;32.33
43217;BME280;60511;42.686;23.300;2023-02-21T08:03:49;94903.38;;;22.40;31.95
43217;BME280;60511;42.686;23.300;2023-02-21T08:05:49;94903.69;;;22.51;32.04
43217;BME280;60511;42.686;23.300;2023-02-21T08:07:50;94939.75;;;22.71;31.66
43217;BME280;60511;42.686;23.300;2023-02-21T08:09:50;94912.09;;;22.61;32.06
43217;BME280;60511;42.686;23.300;2023-02-21T08:11:50;94919.19;;;22.66;31.77
43217;BME280;60511;42.686;23.300;2023-02-21T08:13:51;94897.41;;;22.46;32.11
43217;BME280;60511;42.686;23.300;2023-02-21T08:15:51;94912.31;;;22.69;31.19
43217;BME280;60511;42.686;23.300;2023-02-21T08:17:51;94884.94;;;22.42;31.52
43217;BME280;60511;42.686;23.300;2023-02-21T08:19:52;94927.16;;;22.75;31.97
43217;BME280;60511;42.686;23.300;2023-02-21T08:21:52;94922.22;;;22.64;31.82
43217;BME280;60511;42.686;23.300;2023-02-21T08:23:53;94947.38;;;22.81;31.08
43217;BME280;60511;42.686;23.300;2023-02-21T08:25:54;94915.50;;;22.58;30.89
43217;BME280;60511;42.686;23.300;2023-02-21T08:27:54;94924.91;;;22.77;31.34
43217;BME280;60511;42.686;23.300;2023-02-21T08:29:55;94928.28;;;22.74;31.53
43217;BME280;60511;42.686;23.300;2023-02-21T08:31:55;94928.63;;;22.72;31.79
43217;BME280;60511;42.686;23.300;2023-02-21T08:33:56;94934.34;;;22.83;31.16
43217;BME280;60511;42.686;23.300;2023-02-21T08:35:56;94878.19;;;22.48;31.64
43217;BME280;60511;42.686;23.300;2023-02-21T08:37:57;94862.59;;;22.41;30.73
43217;BME280;60511;42.686;23.300;2023-02-21T08:40:03;94912.91;;;22.62;31.89
43217;BME280;60511;42.686;23.300;2023-02-21T08:42:03;94937.38;;;22.81;30.64
43217;BME280;60511;42.686;23.300;2023-02-21T08:44:05;94788.25;;;21.91;30.63
43217;BME280;60511;42.686;23.300;2023-02-21T08:46:06;94936.13;;;22.79;30.02
43217;BME280;60511;42.686;23.300;2023-02-21T08:48:08;94930.63;;;22.75;30.64
43217;BME280;60511;42.686;23.300;2023-02-21T08:50:08;94941.66;;;22.82;31.85
43217;BME280;60511;42.686;23.300;2023-02-21T08:52:09;94927.00;;;22.83;30.56
43217;BME280;60511;42.686;23.300;2023-02-21T08:54:09;94900.31;;;22.66;30.03
43217;BME280;60511;42.686;23.300;2023-02-21T08:56:10;94927.72;;;22.80;30.59
43217;BME280;60511;42.686;23.300;2023-02-21T08:58:11;94921.50;;;22.80;30.24
43217;BME280;60511;42.686;23.300;2023-02-21T09:00:13;94906.34;;;22.75;31.05
43217;BME280;60511;42.686;23.300;2023-02-21T09:02:21;94868.63;;;22.51;31.17
43217;BME280;60511;42.686;23.300;2023-02-21T09:04:24;94904.22;;;22.69;30.11
43217;BME280;60511;42.686;23.300;2023-02-21T09:06:27;94894.47;;;22.64;29.98
43217;BME280;60511;42.686;23.300;2023-02-21T09:08:27;94920.28;;;22.77;30.54
43217;BME280;60511;42.686;23.300;2023-02-21T09:10:32;94928.81;;;22.79;29.89
43217;BME280;60511;42.686;23.300;2023-02-21T09:12:33;94892.75;;;22.72;29.81
43217;BME280;60511;42.686;23.300;2023-02-21T09:14:34;94791.28;;;22.02;31.01
43217;BME280;60511;42.686;23.300;2023-02-21T09:16:35;94846.63;;;22.36;29.71
43217;BME280;60511;42.686;23.300;2023-02-21T09:18:35;94877.91;;;22.65;30.64
43217;BME280;60511;42.686;23.300;2023-02-21T09:20:35;94910.03;;;22.83;30.70
43217;BME280;60511;42.686;23.300;2023-02-21T09:22:44;94908.69;;;22.89;30.92
43217;BME280;60511;42.686;23.300;2023-02-21T09:24:44;94859.94;;;22.57;30.57
43217;BME280;60511;42.686;23.300;2023-02-21T09:26:45;94890.81;;;22.84;30.93
43217;BME280;60511;42.686;23.300;2023-02-21T09:28:46;94910.69;;;22.92;30.84
43217;BME280;60511;42.686;23.300;2023-02-21T09:30:47;94858.03;;;22.70;31.26
43217;BME280;60511;42.686;23.300;2023-02-21T09:32:49;94872.16;;;22.79;31.01
43217;BME280;60511;42.686;23.300;2023-02-21T09:34:50;94892.34;;;22.98;30.75
43217;BME280;60511;42.686;23.300;2023-02-21T09:36:51;94900.44;;;22.98;31.12
43217;BME280;60511;42.686;23.300;2023-02-21T09:38:51;94870.91;;;22.89;30.93
43217;BME280;60511;42.686;23.300;2023-02-21T09:41:00;94883.47;;;22.97;31.23
43217;BME280;60511;42.686;23.300;2023-02-21T09:43:03;94887.28;;;22.96;31.07
43217;BME280;60511;42.686;23.300;2023-02-21T09:45:05;94860.88;;;22.90;30.79
43217;BME280;60511;42.686;23.300;2023-02-21T09:47:05;94881.19;;;22.99;30.91
43217;BME280;60511;42.686;23.300;2023-02-21T09:49:13;94872.31;;;22.99;30.91
43217;BME280;60511;42.686;23.300;2023-02-21T09:51:17;94867.59;;;22.96;31.03
43217;BME280;60511;42.686;23.300;2023-02-21T09:53:27;94879.53;;;23.07;30.23
43217;BME280;60511;42.686;23.300;2023-02-21T09:55:32;94855.31;;;22.98;30.94
43217;BME280;60511;42.686;23.300;2023-02-21T09:57:35;94853.63;;;23.06;30.99
43217;BME280;60511;42.686;23.300;2023-02-21T09:59:36;94852.75;;;23.02;30.67
43217;BME280;60511;42.686;23.300;2023-02-21T10:06:57;94848.06;;;23.15;30.94
43217;BME280;60511;42.686;23.300;2023-02-21T10:14:12;94832.25;;;23.13;31.23
43217;BME280;60511;42.686;23.300;2023-02-21T10:16:40;94837.66;;;23.13;31.15
43217;BME280;60511;42.686;23.300;2023-02-21T10:20:54;94745.72;;;22.65;31.21
43217;BME280;60511;42.686;23.300;2023-02-21T10:22:57;94829.97;;;23.15;30.93
43217;BME280;60511;42.686;23.300;2023-02-21T10:25:00;94820.91;;;23.08;31.32
43217;BME280;60511;42.686;23.300;2023-02-21T10:27:04;94827.78;;;23.21;31.10
43217;BME280;60511;42.686;23.300;2023-02-21T10:29:21;94779.41;;;23.00;31.09
43217;BME280;60511;42.686;23.300;2023-02-21T10:33:32;94811.59;;;23.21;31.05
43217;BME280;60511;42.686;23.300;2023-02-21T10:35:37;94824.75;;;23.22;31.24
43217;BME280;60511;42.686;23.300;2023-02-21T10:37:44;94807.44;;;23.23;30.81
43217;BME280;60511;42.686;23.300;2023-02-21T10:39:54;94810.91;;;23.24;31.23
43217;BME280;60511;42.686;23.300;2023-02-21T10:41:55;94788.88;;;23.22;31.24
43217;BME280;60511;42.686;23.300;2023-02-21T10:44:04;94795.81;;;23.23;30.98
43217;BME280;60511;42.686;23.300;2023-02-21T10:46:22;94799.78;;;23.25;31.19
43217;BME280;60511;42.686;23.300;2023-02-21T10:48:27;94788.09;;;23.21;31.09
43217;BME280;60511;42.686;23.300;2023-02-21T10:50:48;94777.03;;;23.26;30.35
43217;BME280;60511;42.686;23.300;2023-02-21T10:52:50;94771.97;;;23.25;31.01
43217;BME280;60511;42.686;23.300;2023-02-21T10:55:03;94741.03;;;23.06;30.95
43217;BME280;60511;42.686;23.300;2023-02-21T10:57:09;94780.94;;;23.29;30.74
43217;BME280;60511;42.686;23.300;2023-02-21T10:59:22;94756.72;;;23.33;31.01
43217;BME280;60511;42.686;23.300;2023-02-21T11:03:29;94763.63;;;23.30;30.93
43217;BME280;60511;42.686;23.300;2023-02-21T11:05:30;94758.91;;;23.27;31.05
43217;BME280;60511;42.686;23.300;2023-02-21T11:07:31;94719.09;;;23.08;30.82
43217;BME280;60511;42.686;23.300;2023-02-21T11:11:41;94759.44;;;23.33;31.01
43217;BME280;60511;42.686;23.300;2023-02-21T11:13:41;94741.22;;;23.30;31.06
43217;BME280;60511;42.686;23.300;2023-02-21T11:15:43;94720.06;;;23.16;31.01
43217;BME280;60511;42.686;23.300;2023-02-21T11:17:44;94729.19;;;23.27;30.93
43217;BME280;60511;42.686;23.300;2023-02-21T11:20:35;94731.75;;;23.36;30.92
43217;BME280;60511;42.686;23.300;2023-02-21T11:22:46;94741.38;;;23.37;31.01
43217;BME280;60511;42.686;23.300;2023-02-21T11:26:52;94708.31;;;23.24;30.63
43217;BME280;60511;42.686;23.300;2023-02-21T11:28:53;94711.09;;;23.27;30.90
43217;BME280;60511;42.686;23.300;2023-02-21T11:33:01;94722.47;;;23.37;30.37
43217;BME280;60511;42.686;23.300;2023-02-21T11:35:14;94619.88;;;22.73;30.57
43217;BME280;60511;42.686;23.300;2023-02-21T11:37:20;94706.19;;;23.33;30.83
43217;BME280;60511;42.686;23.300;2023-02-21T11:39:25;94711.34;;;23.38;30.62
43217;BME280;60511;42.686;23.300;2023-02-21T11:43:50;94700.09;;;23.36;30.45
43217;BME280;60511;42.686;23.300;2023-02-21T11:46:01;94706.28;;;23.37;30.60
43217;BME280;60511;42.686;23.300;2023-02-21T11:48:06;94688.78;;;23.31;30.66
43217;BME280;60511;42.686;23.300;2023-02-21T11:50:34;94661.78;;;23.15;30.84
43217;BME280;60511;42.686;23.300;2023-02-21T11:54:45;94658.72;;;23.16;30.68
43217;BME280;60511;42.686;23.300;2023-02-21T11:57:00;94676.75;;;23.28;30.47
43217;BME280;60511;42.686;23.300;2023-02-21T12:04:35;94655.84;;;23.25;30.67
43217;BME280;60511;42.686;23.300;2023-02-21T12:07:20;94654.72;;;23.26;30.95